sensor_id;sensor_type;location;lat;lon;timestamp;pressure;altitude;pressure_sealevel;temperature;humidity
24752;BME280;27246;52.376;4.628;2023-05-24T00:03:29;102391.88;;;11.16;68.94
24752;BME280;27246;52.376;4.628;2023-05-24T00:08:35;102404.03;;;11.23;68.97
24752;BME280;27246;52.376;4.628;2023-05-24T00:13:37;102403.19;;;11.13;68.86
24752;BME280;27246;52.376;4.628;2023-05-24T00:18:39;102399.13;;;11.17;68.92
24752;BME280;27246;52.376;4.628;2023-05-24T00:23:41;102404.03;;;11.23;68.72
24752;BME280;27246;52.376;4.628;2023-05-24T00:28:44;102399.97;;;11.17;69.01
24752;BME280;27246;52.376;4.628;2023-05-24T00:33:46;102393.03;;;11.04;69.63
24752;BME280;27246;52.376;4.628;2023-05-24T00:38:52;102394.34;;;11.09;69.66
24752;BME280;27246;52.376;4.628;2023-05-24T00:43:54;102394.09;;;11.03;70.57
24752;BME280;27246;52.376;4.628;2023-05-24T00:48:56;102390.28;;;11.04;71.03
24752;BME280;27246;52.376;4.628;2023-05-24T00:53:58;102385.50;;;11.06;70.45
24752;BME280;27246;52.376;4.628;2023-05-24T00:59:01;102378.22;;;11.14;70.92
24752;BME280;27246;52.376;4.628;2023-05-24T01:04:02;102385.22;;;11.09;71.03
24752;BME280;27246;52.376;4.628;2023-05-24T01:19:57;102390.88;;;10.97;72.09
24752;BME280;27246;52.376;4.628;2023-05-24T01:30:39;102385.25;;;10.89;73.32
24752;BME280;27246;52.376;4.628;2023-05-24T01:35:42;102378.00;;;10.88;73.44
24752;BME280;27246;52.376;4.628;2023-05-24T01:40:46;102383.38;;;10.90;73.38
24752;BME280;27246;52.376;4.628;2023-05-24T01:46:05;102365.19;;;10.87;73.67
24752;BME280;27246;52.376;4.628;2023-05-24T01:51:14;102365.22;;;10.97;73.99
24752;BME280;27246;52.376;4.628;2023-05-24T01:56:18;102351.03;;;10.92;73.45
24752;BME280;27246;52.376;4.628;2023-05-24T02:01:22;102350.44;;;10.98;73.46
24752;BME280;27246;52.376;4.628;2023-05-24T02:06:26;102343.72;;;11.00;73.33
24752;BME280;27246;52.376;4.628;2023-05-24T02:11:28;102347.81;;;10.96;73.55
24752;BME280;27246;52.376;4.628;2023-05-24T02:16:30;102339.09;;;10.91;73.82
24752;BME280;27246;52.376;4.628;2023-05-24T02:21:31;102348.41;;;10.90;74.02
24752;BME280;27246;52.376;4.628;2023-05-24T02:26:33;102351.59;;;10.86;74.27
24752;BME280;27246;52.376;4.628;2023-05-24T02:31:35;102345.03;;;10.87;74.62
24752;BME280;27246;52.376;4.628;2023-05-24T02:36:37;102346.22;;;10.84;74.69
24752;BME280;27246;52.376;4.628;2023-05-24T02:41:39;102348.69;;;10.77;74.68
24752;BME280;27246;52.376;4.628;2023-05-24T02:46:41;102351.31;;;10.79;74.78
24752;BME280;27246;52.376;4.628;2023-05-24T02:51:45;102358.25;;;10.83;74.75
24752;BME280;27246;52.376;4.628;2023-05-24T02:56:49;102357.81;;;10.88;74.80
24752;BME280;27246;52.376;4.628;2023-05-24T03:01:51;102349.84;;;10.75;74.28
24752;BME280;27246;52.376;4.628;2023-05-24T03:06:53;102346.84;;;10.58;75.56
24752;BME280;27246;52.376;4.628;2023-05-24T03:11:55;102341.22;;;10.60;75.89
24752;BME280;27246;52.376;4.628;2023-05-24T03:16:56;102338.72;;;10.67;75.89
24752;BME280;27246;52.376;4.628;2023-05-24T03:21:58;102330.31;;;10.68;76.14
24752;BME280;27246;52.376;4.628;2023-05-24T03:27:00;102326.69;;;10.68;75.67
24752;BME280;27246;52.376;4.628;2023-05-24T03:32:03;102327.22;;;10.71;76.27
24752;BME280;27246;52.376;4.628;2023-05-24T03:37:05;102339.41;;;10.78;76.39
24752;BME280;27246;52.376;4.628;2023-05-24T03:42:06;102351.44;;;10.77;76.70
24752;BME280;27246;52.376;4.628;2023-05-24T03:47:08;102358.84;;;10.77;76.68
24752;BME280;27246;52.376;4.628;2023-05-24T03:52:10;102360.59;;;10.78;77.00
24752;BME280;27246;52.376;4.628;2023-05-24T03:57:12;102364.97;;;10.71;77.79
24752;BME280;27246;52.376;4.628;2023-05-24T04:02:14;102361.75;;;10.75;77.33
24752;BME280;27246;52.376;4.628;2023-05-24T04:07:16;102353.34;;;10.77;77.48
24752;BME280;27246;52.376;4.628;2023-05-24T04:12:19;102356.69;;;10.80;77.69
24752;BME280;27246;52.376;4.628;2023-05-24T04:17:21;102356.81;;;10.79;77.47
24752;BME280;27246;52.376;4.628;2023-05-24T04:22:29;102356.09;;;10.77;77.02
24752;BME280;27246;52.376;4.628;2023-05-24T04:27:31;102361.47;;;10.78;77.30
24752;BME280;27246;52.376;4.628;2023-05-24T04:32:32;102355.84;;;10.70;78.03
24752;BME280;27246;52.376;4.628;2023-05-24T04:37:36;102356.22;;;10.75;77.64
24752;BME280;27246;52.376;4.628;2023-05-24T04:42:38;102347.22;;;10.83;77.90
24752;BME280;27246;52.376;4.628;2023-05-24T04:47:40;102352.47;;;10.86;78.01
24752;BME280;27246;52.376;4.628;2023-05-24T04:52:42;102347.66;;;10.88;78.06
24752;BME280;27246;52.376;4.628;2023-05-24T04:57:44;102344.47;;;10.93;78.16
24752;BME280;27246;52.376;4.628;2023-05-24T05:02:45;102352.72;;;11.03;78.86
24752;BME280;27246;52.376;4.628;2023-05-24T05:07:50;102354.88;;;11.09;78.79
24752;BME280;27246;52.376;4.628;2023-05-24T05:12:51;102354.97;;;11.17;78.99
24752;BME280;27246;52.376;4.628;2023-05-24T05:17:53;102355.94;;;11.26;78.23
24752;BME280;27246;52.376;4.628;2023-05-24T05:22:55;102353.56;;;11.40;79.54
24752;BME280;27246;52.376;4.628;2023-05-24T05:27:57;102351.31;;;11.54;78.08
24752;BME280;27246;52.376;4.628;2023-05-24T05:32:58;102357.34;;;11.67;77.37
24752;BME280;27246;52.376;4.628;2023-05-24T05:38:00;102362.31;;;11.81;77.54
24752;BME280;27246;52.376;4.628;2023-05-24T05:43:02;102365.72;;;11.75;76.63
24752;BME280;27246;52.376;4.628;2023-05-24T05:48:05;102371.31;;;11.84;76.97
24752;BME280;27246;52.376;4.628;2023-05-24T05:53:06;102374.56;;;11.79;75.70
24752;BME280;27246;52.376;4.628;2023-05-24T05:58:08;102369.97;;;11.88;76.03
24752;BME280;27246;52.376;4.628;2023-05-24T06:03:10;102367.63;;;11.93;75.09
24752;BME280;27246;52.376;4.628;2023-05-24T06:08:12;102361.47;;;11.99;73.86
24752;BME280;27246;52.376;4.628;2023-05-24T06:13:14;102374.34;;;12.08;73.92
24752;BME280;27246;52.376;4.628;2023-05-24T06:18:16;102373.78;;;12.23;72.66
24752;BME280;27246;52.376;4.628;2023-05-24T06:23:19;102367.06;;;12.43;72.13
24752;BME280;27246;52.376;4.628;2023-05-24T06:28:20;102369.78;;;12.35;70.35
24752;BME280;27246;52.376;4.628;2023-05-24T06:33:23;102373.16;;;12.47;72.10
24752;BME280;27246;52.376;4.628;2023-05-24T06:38:24;102370.03;;;12.42;69.59
24752;BME280;27246;52.376;4.628;2023-05-24T06:43:27;102385.31;;;12.54;68.37
24752;BME280;27246;52.376;4.628;2023-05-24T06:48:29;102375.63;;;12.50;68.52
24752;BME280;27246;52.376;4.628;2023-05-24T06:53:31;102376.59;;;12.67;69.43
24752;BME280;27246;52.376;4.628;2023-05-24T06:58:34;102380.69;;;12.80;67.57
24752;BME280;27246;52.376;4.628;2023-05-24T07:03:35;102382.69;;;12.70;67.99
24752;BME280;27246;52.376;4.628;2023-05-24T07:08:37;102386.81;;;12.92;66.34
24752;BME280;27246;52.376;4.628;2023-05-24T07:13:39;102395.19;;;13.00;66.60
24752;BME280;27246;52.376;4.628;2023-05-24T07:18:40;102397.59;;;13.04;67.71
24752;BME280;27246;52.376;4.628;2023-05-24T07:23:42;102396.47;;;13.14;65.58
24752;BME280;27246;52.376;4.628;2023-05-24T07:28:44;102391.50;;;13.18;65.55
24752;BME280;27246;52.376;4.628;2023-05-24T07:33:49;102390.84;;;13.24;64.38
24752;BME280;27246;52.376;4.628;2023-05-24T07:38:51;102395.78;;;13.47;64.35
24752;BME280;27246;52.376;4.628;2023-05-24T07:43:54;102390.22;;;13.38;65.06
24752;BME280;27246;52.376;4.628;2023-05-24T07:48:57;102397.59;;;13.64;64.09
24752;BME280;27246;52.376;4.628;2023-05-24T07:53:59;102398.03;;;13.86;64.74
24752;BME280;27246;52.376;4.628;2023-05-24T07:59:03;102389.59;;;14.04;63.36
24752;BME280;27246;52.376;4.628;2023-05-24T08:04:05;102398.72;;;13.88;62.95
24752;BME280;27246;52.376;4.628;2023-05-24T08:09:10;102397.94;;;14.28;61.30
24752;BME280;27246;52.376;4.628;2023-05-24T08:14:12;102391.03;;;14.49;61.61
24752;BME280;27246;52.376;4.628;2023-05-24T08:19:14;102386.53;;;14.39;62.28
24752;BME280;27246;52.376;4.628;2023-05-24T08:24:16;102383.75;;;14.39;60.70
24752;BME280;27246;52.376;4.628;2023-05-24T08:29:20;102396.91;;;15.03;60.17
24752;BME280;27246;52.376;4.628;2023-05-24T08:34:22;102394.81;;;15.13;57.07
24752;BME280;27246;52.376;4.628;2023-05-24T08:39:23;102402.56;;;15.34;57.05
24752;BME280;27246;52.376;4.628;2023-05-24T08:44:26;102397.25;;;15.56;57.73
24752;BME280;27246;52.376;4.628;2023-05-24T08:49:30;102400.09;;;15.39;56.74
24752;BME280;27246;52.376;4.628;2023-05-24T08:54:35;102397.66;;;15.53;59.82
24752;BME280;27246;52.376;4.628;2023-05-24T08:59:40;102405.50;;;15.80;54.81
24752;BME280;27246;52.376;4.628;2023-05-24T09:04:43;102391.47;;;15.74;55.49
24752;BME280;27246;52.376;4.628;2023-05-24T09:09:56;102390.84;;;16.26;57.35
24752;BME280;27246;52.376;4.628;2023-05-24T09:14:59;102395.47;;;16.34;55.32
24752;BME280;27246;52.376;4.628;2023-05-24T09:20:01;102383.28;;;16.35;53.53
24752;BME280;27246;52.376;4.628;2023-05-24T09:25:07;102390.78;;;16.57;53.04
24752;BME280;27246;52.376;4.628;2023-05-24T09:30:10;102393.66;;;16.87;51.34
24752;BME280;27246;52.376;4.628;2023-05-24T09:35:13;102388.34;;;16.77;50.73
24752;BME280;27246;52.376;4.628;2023-05-24T09:40:19;102378.53;;;17.05;51.24
24752;BME280;27246;52.376;4.628;2023-05-24T09:45:23;102386.50;;;17.23;50.04
24752;BME280;27246;52.376;4.628;2023-05-24T09:50:24;102379.28;;;17.58;51.92
24752;BME280;27246;52.376;4.628;2023-05-24T09:55:27;102381.78;;;17.83;49.01
24752;BME280;27246;52.376;4.628;2023-05-24T10:00:38;102374.22;;;17.98;49.66
24752;BME280;27246;52.376;4.628;2023-05-24T10:05:45;102373.50;;;17.74;49.74
24752;BME280;27246;52.376;4.628;2023-05-24T10:10:48;102375.44;;;18.10;48.21
24752;BME280;27246;52.376;4.628;2023-05-24T10:15:50;102383.63;;;18.12;46.95
24752;BME280;27246;52.376;4.628;2023-05-24T10:20:54;102371.19;;;17.93;48.54
24752;BME280;27246;52.376;4.628;2023-05-24T10:26:02;102390.13;;;17.68;48.12
24752;BME280;27246;52.376;4.628;2023-05-24T10:31:09;102393.00;;;17.89;48.12
24752;BME280;27246;52.376;4.628;2023-05-24T10:36:13;102392.06;;;17.67;48.35
24752;BME280;27246;52.376;4.628;2023-05-24T10:41:17;102380.34;;;17.27;49.11
24752;BME280;27246;52.376;4.628;2023-05-24T10:46:20;102394.72;;;16.86;50.11
24752;BME280;27246;52.376;4.628;2023-05-24T10:51:35;102404.47;;;17.20;50.46
24752;BME280;27246;52.376;4.628;2023-05-24T10:56:49;102389.38;;;17.14;49.19
24752;BME280;27246;52.376;4.628;2023-05-24T11:01:56;102387.34;;;16.70;51.82
24752;BME280;27246;52.376;4.628;2023-05-24T11:07:03;102387.84;;;17.27;51.44
24752;BME280;27246;52.376;4.628;2023-05-24T11:12:07;102394.06;;;17.73;48.59
24752;BME280;27246;52.376;4.628;2023-05-24T11:17:09;102386.09;;;18.22;47.35
24752;BME280;27246;52.376;4.628;2023-05-24T11:22:13;102379.19;;;18.39;46.85
24752;BME280;27246;52.376;4.628;2023-05-24T11:27:20;102384.38;;;18.42;48.48
24752;BME280;27246;52.376;4.628;2023-05-24T11:32:22;102370.94;;;18.74;46.84
24752;BME280;27246;52.376;4.628;2023-05-24T11:37:25;102376.50;;;18.52;46.40
24752;BME280;27246;52.376;4.628;2023-05-24T11:42:46;102376.34;;;19.04;46.48
24752;BME280;27246;52.376;4.628;2023-05-24T11:47:50;102375.66;;;18.52;46.00
24752;BME280;27246;52.376;4.628;2023-05-24T11:52:51;102376.63;;;18.23;47.47
24752;BME280;27246;52.376;4.628;2023-05-24T11:57:57;102382.34;;;17.93;46.47
24752;BME280;27246;52.376;4.628;2023-05-24T12:03:00;102375.81;;;17.56;47.06
24752;BME280;27246;52.376;4.628;2023-05-24T12:08:09;102374.97;;;17.41;49.48
24752;BME280;27246;52.376;4.628;2023-05-24T12:13:20;102375.25;;;17.46;48.67
24752;BME280;27246;52.376;4.628;2023-05-24T12:18:24;102375.09;;;17.32;49.24
24752;BME280;27246;52.376;4.628;2023-05-24T12:23:27;102377.88;;;17.32;49.05
24752;BME280;27246;52.376;4.628;2023-05-24T12:28:33;102371.41;;;17.32;48.97
24752;BME280;27246;52.376;4.628;2023-05-24T12:33:37;102377.50;;;16.83;49.79
24752;BME280;27246;52.376;4.628;2023-05-24T12:38:40;102373.03;;;16.96;49.97
24752;BME280;27246;52.376;4.628;2023-05-24T12:43:41;102376.72;;;16.74;50.73
24752;BME280;27246;52.376;4.628;2023-05-24T12:48:45;102371.16;;;16.74;51.57
24752;BME280;27246;52.376;4.628;2023-05-24T12:53:46;102369.31;;;16.66;51.82
24752;BME280;27246;52.376;4.628;2023-05-24T12:58:49;102371.69;;;17.07;51.09
24752;BME280;27246;52.376;4.628;2023-05-24T13:03:50;102372.28;;;16.88;51.32
24752;BME280;27246;52.376;4.628;2023-05-24T13:08:52;102373.19;;;16.80;51.08
24752;BME280;27246;52.376;4.628;2023-05-24T13:13:54;102367.38;;;17.05;51.87
24752;BME280;27246;52.376;4.628;2023-05-24T13:18:56;102376.13;;;17.16;51.44
24752;BME280;27246;52.376;4.628;2023-05-24T13:23:58;102383.09;;;16.97;50.70
24752;BME280;27246;52.376;4.628;2023-05-24T13:28:59;102378.78;;;16.95;51.44
24752;BME280;27246;52.376;4.628;2023-05-24T13:34:05;102383.41;;;16.65;50.86
24752;BME280;27246;52.376;4.628;2023-05-24T13:39:07;102381.53;;;16.57;51.22
24752;BME280;27246;52.376;4.628;2023-05-24T13:44:14;102376.19;;;16.55;51.50
24752;BME280;27246;52.376;4.628;2023-05-24T13:49:17;102388.22;;;16.25;52.47
24752;BME280;27246;52.376;4.628;2023-05-24T13:54:22;102374.41;;;16.39;51.92
24752;BME280;27246;52.376;4.628;2023-05-24T13:59:24;102385.38;;;16.33;51.94
24752;BME280;27246;52.376;4.628;2023-05-24T14:04:26;102379.47;;;16.36;51.64
24752;BME280;27246;52.376;4.628;2023-05-24T14:09:27;102380.09;;;16.46;52.17
24752;BME280;27246;52.376;4.628;2023-05-24T14:14:29;102376.28;;;16.62;52.19
24752;BME280;27246;52.376;4.628;2023-05-24T14:19:37;102379.84;;;16.71;51.43
24752;BME280;27246;52.376;4.628;2023-05-24T14:24:39;102382.03;;;16.60;50.96
24752;BME280;27246;52.376;4.628;2023-05-24T14:29:42;102387.78;;;16.59;51.75
24752;BME280;27246;52.376;4.628;2023-05-24T14:34:43;102383.31;;;16.73;50.82
24752;BME280;27246;52.376;4.628;2023-05-24T14:39:45;102379.84;;;16.71;51.24
24752;BME280;27246;52.376;4.628;2023-05-24T14:44:48;102380.66;;;16.79;51.35
24752;BME280;27246;52.376;4.628;2023-05-24T14:49:50;102383.88;;;16.91;51.85
24752;BME280;27246;52.376;4.628;2023-05-24T14:54:52;102388.72;;;17.27;51.35
24752;BME280;27246;52.376;4.628;2023-05-24T14:59:54;102381.38;;;16.96;50.80
24752;BME280;27246;52.376;4.628;2023-05-24T15:04:56;102378.16;;;16.70;51.35
24752;BME280;27246;52.376;4.628;2023-05-24T15:09:58;102392.06;;;16.70;52.50
24752;BME280;27246;52.376;4.628;2023-05-24T15:15:00;102393.00;;;16.62;52.53
24752;BME280;27246;52.376;4.628;2023-05-24T15:20:01;102391.03;;;16.48;52.98
24752;BME280;27246;52.376;4.628;2023-05-24T15:25:05;102392.19;;;16.30;52.34
24752;BME280;27246;52.376;4.628;2023-05-24T15:30:07;102389.22;;;16.32;53.08
24752;BME280;27246;52.376;4.628;2023-05-24T15:35:12;102390.84;;;16.49;52.58
24752;BME280;27246;52.376;4.628;2023-05-24T15:40:14;102393.31;;;16.44;53.20
24752;BME280;27246;52.376;4.628;2023-05-24T15:45:16;102396.09;;;16.44;53.57
24752;BME280;27246;52.376;4.628;2023-05-24T15:50:19;102394.91;;;16.15;53.99
24752;BME280;27246;52.376;4.628;2023-05-24T15:55:41;102388.81;;;16.43;54.47
24752;BME280;27246;52.376;4.628;2023-05-24T16:00:43;102393.50;;;16.66;53.18
24752;BME280;27246;52.376;4.628;2023-05-24T16:05:46;102391.50;;;17.27;52.52
24752;BME280;27246;52.376;4.628;2023-05-24T16:10:51;102393.50;;;17.63;51.77
24752;BME280;27246;52.376;4.628;2023-05-24T16:15:52;102389.06;;;17.54;51.01
24752;BME280;27246;52.376;4.628;2023-05-24T16:20:54;102383.13;;;17.12;51.88
24752;BME280;27246;52.376;4.628;2023-05-24T16:25:56;102377.25;;;16.92;52.39
24752;BME280;27246;52.376;4.628;2023-05-24T16:30:58;102379.84;;;16.71;52.42
24752;BME280;27246;52.376;4.628;2023-05-24T16:36:02;102378.09;;;16.55;52.15
24752;BME280;27246;52.376;4.628;2023-05-24T16:41:05;102375.38;;;16.24;51.76
24752;BME280;27246;52.376;4.628;2023-05-24T16:46:06;102380.00;;;16.08;53.30
24752;BME280;27246;52.376;4.628;2023-05-24T16:51:08;102377.38;;;16.15;54.47
24752;BME280;27246;52.376;4.628;2023-05-24T16:56:12;102370.44;;;16.11;53.22
24752;BME280;27246;52.376;4.628;2023-05-24T17:01:13;102369.63;;;16.02;52.27
24752;BME280;27246;52.376;4.628;2023-05-24T17:06:15;102378.00;;;15.63;52.22
24752;BME280;27246;52.376;4.628;2023-05-24T17:11:19;102375.69;;;15.74;52.26
24752;BME280;27246;52.376;4.628;2023-05-24T17:16:21;102379.81;;;15.78;52.97
24752;BME280;27246;52.376;4.628;2023-05-24T17:21:23;102378.06;;;15.86;52.99
24752;BME280;27246;52.376;4.628;2023-05-24T17:26:28;102383.44;;;15.87;53.77
24752;BME280;27246;52.376;4.628;2023-05-24T17:31:29;102387.41;;;15.93;54.72
24752;BME280;27246;52.376;4.628;2023-05-24T17:36:33;102378.00;;;15.94;54.32
24752;BME280;27246;52.376;4.628;2023-05-24T17:41:36;102383.13;;;15.82;55.02
24752;BME280;27246;52.376;4.628;2023-05-24T17:46:38;102384.31;;;15.79;55.05
24752;BME280;27246;52.376;4.628;2023-05-24T17:51:42;102383.78;;;15.84;55.03
24752;BME280;27246;52.376;4.628;2023-05-24T17:56:44;102386.34;;;15.94;55.05
24752;BME280;27246;52.376;4.628;2023-05-24T18:01:45;102383.84;;;16.07;53.67
24752;BME280;27246;52.376;4.628;2023-05-24T18:06:49;102381.75;;;16.09;54.23
24752;BME280;27246;52.376;4.628;2023-05-24T18:11:50;102383.16;;;16.05;53.27
24752;BME280;27246;52.376;4.628;2023-05-24T18:16:52;102388.91;;;16.04;53.53
24752;BME280;27246;52.376;4.628;2023-05-24T18:22:02;102387.72;;;15.98;53.70
24752;BME280;27246;52.376;4.628;2023-05-24T18:27:04;102393.22;;;16.06;53.57
24752;BME280;27246;52.376;4.628;2023-05-24T18:32:06;102388.78;;;15.97;53.02
24752;BME280;27246;52.376;4.628;2023-05-24T18:37:07;102403.63;;;15.81;53.59
24752;BME280;27246;52.376;4.628;2023-05-24T18:42:09;102397.56;;;15.69;54.29
24752;BME280;27246;52.376;4.628;2023-05-24T18:47:12;102402.13;;;15.54;54.77
24752;BME280;27246;52.376;4.628;2023-05-24T18:52:14;102414.34;;;15.45;55.19
24752;BME280;27246;52.376;4.628;2023-05-24T18:57:16;102411.56;;;15.45;55.92
24752;BME280;27246;52.376;4.628;2023-05-24T19:02:21;102413.81;;;15.41;55.67
24752;BME280;27246;52.376;4.628;2023-05-24T19:07:22;102409.91;;;15.19;56.08
24752;BME280;27246;52.376;4.628;2023-05-24T19:12:25;102413.53;;;15.19;56.25
24752;BME280;27246;52.376;4.628;2023-05-24T19:17:28;102420.88;;;15.04;56.69
24752;BME280;27246;52.376;4.628;2023-05-24T19:22:31;102420.69;;;14.97;57.68
24752;BME280;27246;52.376;4.628;2023-05-24T19:27:33;102433.88;;;14.87;58.40
24752;BME280;27246;52.376;4.628;2023-05-24T19:32:38;102441.88;;;14.82;58.13
24752;BME280;27246;52.376;4.628;2023-05-24T19:37:40;102442.56;;;14.76;58.77
24752;BME280;27246;52.376;4.628;2023-05-24T19:42:41;102443.38;;;14.60;59.60
24752;BME280;27246;52.376;4.628;2023-05-24T19:47:43;102445.28;;;14.51;59.99
24752;BME280;27246;52.376;4.628;2023-05-24T19:52:45;102448.41;;;14.56;59.73
24752;BME280;27246;52.376;4.628;2023-05-24T19:57:51;102456.88;;;14.47;60.35
24752;BME280;27246;52.376;4.628;2023-05-24T20:02:52;102459.16;;;14.43;59.86
24752;BME280;27246;52.376;4.628;2023-05-24T20:07:54;102460.50;;;14.39;60.04
24752;BME280;27246;52.376;4.628;2023-05-24T20:12:57;102466.94;;;14.39;60.36
24752;BME280;27246;52.376;4.628;2023-05-24T20:17:58;102474.53;;;14.29;60.72
24752;BME280;27246;52.376;4.628;2023-05-24T20:23:00;102480.41;;;14.26;60.66
24752;BME280;27246;52.376;4.628;2023-05-24T20:28:02;102484.69;;;14.12;61.05
24752;BME280;27246;52.376;4.628;2023-05-24T20:33:04;102495.06;;;14.10;61.11
24752;BME280;27246;52.376;4.628;2023-05-24T20:38:05;102492.44;;;14.00;61.61
24752;BME280;27246;52.376;4.628;2023-05-24T20:43:07;102494.50;;;13.98;62.20
24752;BME280;27246;52.376;4.628;2023-05-24T20:48:09;102496.38;;;13.90;62.78
24752;BME280;27246;52.376;4.628;2023-05-24T20:53:11;102495.53;;;13.89;62.94
24752;BME280;27246;52.376;4.628;2023-05-24T20:58:12;102485.97;;;13.84;64.35
24752;BME280;27246;52.376;4.628;2023-05-24T21:03:15;102490.97;;;13.80;64.25
24752;BME280;27246;52.376;4.628;2023-05-24T21:08:22;102495.09;;;13.76;65.29
24752;BME280;27246;52.376;4.628;2023-05-24T21:13:23;102497.69;;;13.69;65.67
24752;BME280;27246;52.376;4.628;2023-05-24T21:18:26;102498.38;;;13.71;66.21
24752;BME280;27246;52.376;4.628;2023-05-24T21:23:27;102503.72;;;13.65;66.80
24752;BME280;27246;52.376;4.628;2023-05-24T21:28:29;102509.56;;;13.62;66.82
24752;BME280;27246;52.376;4.628;2023-05-24T21:33:31;102507.16;;;13.58;67.33
24752;BME280;27246;52.376;4.628;2023-05-24T21:38:33;102515.88;;;13.54;67.96
24752;BME280;27246;52.376;4.628;2023-05-24T21:43:39;102520.41;;;13.55;68.54
24752;BME280;27246;52.376;4.628;2023-05-24T21:48:41;102519.00;;;13.51;69.14
24752;BME280;27246;52.376;4.628;2023-05-24T21:53:43;102520.38;;;13.47;69.73
24752;BME280;27246;52.376;4.628;2023-05-24T21:58:44;102516.53;;;13.48;69.44
24752;BME280;27246;52.376;4.628;2023-05-24T22:03:46;102525.91;;;13.47;70.01
24752;BME280;27246;52.376;4.628;2023-05-24T22:08:50;102530.56;;;13.46;70.53
24752;BME280;27246;52.376;4.628;2023-05-24T22:13:52;102526.56;;;13.40;71.36
24752;BME280;27246;52.376;4.628;2023-05-24T22:18:54;102535.41;;;13.44;71.62
24752;BME280;27246;52.376;4.628;2023-05-24T22:23:56;102540.38;;;13.40;72.40
24752;BME280;27246;52.376;4.628;2023-05-24T22:28:57;102549.72;;;13.39;73.02
24752;BME280;27246;52.376;4.628;2023-05-24T22:34:04;102548.28;;;13.35;73.64
24752;BME280;27246;52.376;4.628;2023-05-24T22:39:05;102555.19;;;13.31;74.34
24752;BME280;27246;52.376;4.628;2023-05-24T22:44:07;102549.66;;;13.31;75.07
24752;BME280;27246;52.376;4.628;2023-05-24T22:49:09;102550.16;;;13.27;75.07
24752;BME280;27246;52.376;4.628;2023-05-24T22:54:21;102547.53;;;13.25;74.97
24752;BME280;27246;52.376;4.628;2023-05-24T22:59:22;102545.47;;;13.27;75.92
24752;BME280;27246;52.376;4.628;2023-05-24T23:04:24;102553.06;;;13.25;76.65
24752;BME280;27246;52.376;4.628;2023-05-24T23:09:28;102557.53;;;13.18;76.81
24752;BME280;27246;52.376;4.628;2023-05-24T23:14:37;102559.25;;;13.19;76.78
24752;BME280;27246;52.376;4.628;2023-05-24T23:19:40;102544.78;;;13.07;77.39
24752;BME280;27246;52.376;4.628;2023-05-24T23:24:46;102548.59;;;13.06;77.98
24752;BME280;27246;52.376;4.628;2023-05-24T23:29:48;102533.50;;;13.00;77.40
24752;BME280;27246;52.376;4.628;2023-05-24T23:34:50;102535.78;;;13.05;78.06
24752;BME280;27246;52.376;4.628;2023-05-24T23:39:52;102533.28;;;12.94;78.12
24752;BME280;27246;52.376;4.628;2023-05-24T23:44:54;102534.13;;;12.94;77.89
24752;BME280;27246;52.376;4.628;2023-05-24T23:49:55;102536.19;;;12.92;78.24
24752;BME280;27246;52.376;4.628;2023-05-24T23:54:57;102534.06;;;12.86;79.05
24752;BME280;27246;52.376;4.628;2023-05-24T23:59:59;102523.63;;;12.80;78.64
